sensor_id;sensor_type;location;lat;lon;timestamp;temperature;humidity
9824;DHT22;4951;50.778;7.196;2022-12-10T00:01:45;-2.50;1.00
9824;DHT22;4951;50.778;7.196;2022-12-10T00:04:14;-2.60;1.00
9824;DHT22;4951;50.778;7.196;2022-12-10T00:06:42;-2.70;1.00
9824;DHT22;4951;50.778;7.196;2022-12-10T00:09:11;-2.70;1.00
9824;DHT22;4951;50.778;7.196;2022-12-10T00:11:40;-2.70;1.00
9824;DHT22;4951;50.778;7.196;2022-12-10T00:14:07;-2.70;1.00
9824;DHT22;4951;50.778;7.196;2022-12-10T00:16:35;-2.70;1.00
9824;DHT22;4951;50.778;7.196;2022-12-10T00:19:03;-2.80;1.00
9824;DHT22;4951;50.778;7.196;2022-12-10T00:21:34;-2.80;1.00
9824;DHT22;4951;50.778;7.196;2022-12-10T00:24:02;-2.80;1.00
9824;DHT22;4951;50.778;7.196;2022-12-10T00:26:31;-2.90;1.00
9824;DHT22;4951;50.778;7.196;2022-12-10T00:29:00;-2.90;1.00
9824;DHT22;4951;50.778;7.196;2022-12-10T00:31:29;-2.90;1.00
9824;DHT22;4951;50.778;7.196;2022-12-10T00:33:59;-2.90;1.00
9824;DHT22;4951;50.778;7.196;2022-12-10T00:36:28;-2.90;1.00
9824;DHT22;4951;50.778;7.196;2022-12-10T00:38:57;-2.80;1.00
9824;DHT22;4951;50.778;7.196;2022-12-10T00:41:27;-2.70;1.00
9824;DHT22;4951;50.778;7.196;2022-12-10T00:43:54;-2.60;1.00
9824;DHT22;4951;50.778;7.196;2022-12-10T00:46:21;-2.60;1.00
9824;DHT22;4951;50.778;7.196;2022-12-10T00:48:48;-2.50;1.00
9824;DHT22;4951;50.778;7.196;2022-12-10T00:51:17;-2.40;1.00
9824;DHT22;4951;50.778;7.196;2022-12-10T00:53:46;-2.30;1.00
9824;DHT22;4951;50.778;7.196;2022-12-10T00:56:17;-2.30;1.00
9824;DHT22;4951;50.778;7.196;2022-12-10T00:58:44;-2.20;1.00
9824;DHT22;4951;50.778;7.196;2022-12-10T01:01:13;-2.10;1.00
9824;DHT22;4951;50.778;7.196;2022-12-10T01:03:42;-2.10;1.00
9824;DHT22;4951;50.778;7.196;2022-12-10T01:06:13;-2.00;1.00
9824;DHT22;4951;50.778;7.196;2022-12-10T01:08:41;-1.90;1.00
9824;DHT22;4951;50.778;7.196;2022-12-10T01:11:10;-1.90;1.00
9824;DHT22;4951;50.778;7.196;2022-12-10T01:13:40;-1.90;1.00
9824;DHT22;4951;50.778;7.196;2022-12-10T01:16:09;-1.90;1.00
9824;DHT22;4951;50.778;7.196;2022-12-10T01:18:37;-1.90;1.00
9824;DHT22;4951;50.778;7.196;2022-12-10T01:21:07;-1.80;1.00
9824;DHT22;4951;50.778;7.196;2022-12-10T01:23:35;-1.90;1.00
9824;DHT22;4951;50.778;7.196;2022-12-10T01:26:04;-1.90;1.00
9824;DHT22;4951;50.778;7.196;2022-12-10T01:28:35;-1.90;1.00
9824;DHT22;4951;50.778;7.196;2022-12-10T01:31:06;-1.90;1.00
9824;DHT22;4951;50.778;7.196;2022-12-10T01:33:34;-1.90;1.00
9824;DHT22;4951;50.778;7.196;2022-12-10T01:36:03;-1.90;1.00
9824;DHT22;4951;50.778;7.196;2022-12-10T01:38:31;-1.90;1.00
9824;DHT22;4951;50.778;7.196;2022-12-10T01:40:58;-1.90;1.00
9824;DHT22;4951;50.778;7.196;2022-12-10T01:43:25;-1.90;1.00
9824;DHT22;4951;50.778;7.196;2022-12-10T01:45:53;-1.90;1.00
9824;DHT22;4951;50.778;7.196;2022-12-10T01:48:22;-1.90;1.00
9824;DHT22;4951;50.778;7.196;2022-12-10T01:50:49;-1.90;1.00
9824;DHT22;4951;50.778;7.196;2022-12-10T01:53:16;-1.90;1.00
9824;DHT22;4951;50.778;7.196;2022-12-10T01:55:47;-1.90;1.00
9824;DHT22;4951;50.778;7.196;2022-12-10T01:58:16;-1.90;1.00
9824;DHT22;4951;50.778;7.196;2022-12-10T02:01:01;-1.90;1.00
9824;DHT22;4951;50.778;7.196;2022-12-10T02:03:40;-1.90;1.00
9824;DHT22;4951;50.778;7.196;2022-12-10T02:06:19;-1.90;1.00
9824;DHT22;4951;50.778;7.196;2022-12-10T02:08:56;-2.00;1.00
9824;DHT22;4951;50.778;7.196;2022-12-10T02:11:31;-1.90;1.00
9824;DHT22;4951;50.778;7.196;2022-12-10T02:14:03;-1.90;1.00
9824;DHT22;4951;50.778;7.196;2022-12-10T02:16:36;-1.90;1.00
9824;DHT22;4951;50.778;7.196;2022-12-10T02:19:16;-1.90;1.00
9824;DHT22;4951;50.778;7.196;2022-12-10T02:21:47;-1.90;1.00
9824;DHT22;4951;50.778;7.196;2022-12-10T02:24:21;-1.80;1.00
9824;DHT22;4951;50.778;7.196;2022-12-10T02:26:58;-1.80;1.00
9824;DHT22;4951;50.778;7.196;2022-12-10T02:29:31;-1.80;1.00
9824;DHT22;4951;50.778;7.196;2022-12-10T02:32:02;-1.80;1.00
9824;DHT22;4951;50.778;7.196;2022-12-10T02:34:37;-1.80;1.00
9824;DHT22;4951;50.778;7.196;2022-12-10T02:37:11;-1.80;1.00
9824;DHT22;4951;50.778;7.196;2022-12-10T02:39:43;-1.80;1.00
9824;DHT22;4951;50.778;7.196;2022-12-10T02:42:13;-1.70;1.00
9824;DHT22;4951;50.778;7.196;2022-12-10T02:44:44;-1.70;1.00
9824;DHT22;4951;50.778;7.196;2022-12-10T02:47:13;-1.70;1.00
9824;DHT22;4951;50.778;7.196;2022-12-10T02:49:46;-1.70;1.00
9824;DHT22;4951;50.778;7.196;2022-12-10T02:52:17;-1.70;1.00
9824;DHT22;4951;50.778;7.196;2022-12-10T02:54:49;-1.60;1.00
9824;DHT22;4951;50.778;7.196;2022-12-10T02:57:28;-1.60;1.00
9824;DHT22;4951;50.778;7.196;2022-12-10T03:00:09;-1.60;1.00
9824;DHT22;4951;50.778;7.196;2022-12-10T03:02:53;-1.70;1.00
9824;DHT22;4951;50.778;7.196;2022-12-10T03:05:33;-1.70;1.00
9824;DHT22;4951;50.778;7.196;2022-12-10T03:08:06;-1.70;1.00
9824;DHT22;4951;50.778;7.196;2022-12-10T03:10:42;-1.70;1.00
9824;DHT22;4951;50.778;7.196;2022-12-10T03:13:12;-1.70;1.00
9824;DHT22;4951;50.778;7.196;2022-12-10T03:15:43;-1.70;1.00
9824;DHT22;4951;50.778;7.196;2022-12-10T03:18:12;-1.70;1.00
9824;DHT22;4951;50.778;7.196;2022-12-10T03:20:44;-1.70;1.00
9824;DHT22;4951;50.778;7.196;2022-12-10T03:23:15;-1.70;1.00
9824;DHT22;4951;50.778;7.196;2022-12-10T03:25:47;-1.70;1.00
9824;DHT22;4951;50.778;7.196;2022-12-10T03:28:18;-1.70;1.00
9824;DHT22;4951;50.778;7.196;2022-12-10T03:30:48;-1.60;1.00
9824;DHT22;4951;50.778;7.196;2022-12-10T03:33:18;-1.60;1.00
9824;DHT22;4951;50.778;7.196;2022-12-10T03:35:46;-1.60;1.00
9824;DHT22;4951;50.778;7.196;2022-12-10T03:38:13;-1.60;1.00
9824;DHT22;4951;50.778;7.196;2022-12-10T03:40:41;-1.60;1.00
9824;DHT22;4951;50.778;7.196;2022-12-10T03:43:09;-1.60;1.00
9824;DHT22;4951;50.778;7.196;2022-12-10T03:45:39;-1.60;1.00
9824;DHT22;4951;50.778;7.196;2022-12-10T03:48:08;-1.60;1.00
9824;DHT22;4951;50.778;7.196;2022-12-10T03:50:35;-1.60;1.00
9824;DHT22;4951;50.778;7.196;2022-12-10T03:53:02;-1.60;1.00
9824;DHT22;4951;50.778;7.196;2022-12-10T03:55:29;-1.60;1.00
9824;DHT22;4951;50.778;7.196;2022-12-10T03:57:58;-1.60;1.00
9824;DHT22;4951;50.778;7.196;2022-12-10T04:00:25;-1.60;1.00
9824;DHT22;4951;50.778;7.196;2022-12-10T04:02:52;-1.60;1.00
9824;DHT22;4951;50.778;7.196;2022-12-10T04:05:21;-1.60;1.00
9824;DHT22;4951;50.778;7.196;2022-12-10T04:07:48;-1.60;1.00
9824;DHT22;4951;50.778;7.196;2022-12-10T04:10:15;-1.60;1.00
9824;DHT22;4951;50.778;7.196;2022-12-10T04:12:42;-1.60;1.00
9824;DHT22;4951;50.778;7.196;2022-12-10T04:15:29;-1.60;1.00
9824;DHT22;4951;50.778;7.196;2022-12-10T04:18:14;-1.60;1.00
9824;DHT22;4951;50.778;7.196;2022-12-10T04:20:42;-1.60;1.00
9824;DHT22;4951;50.778;7.196;2022-12-10T04:23:29;-1.60;1.00
9824;DHT22;4951;50.778;7.196;2022-12-10T04:26:13;-1.60;1.00
9824;DHT22;4951;50.778;7.196;2022-12-10T04:28:58;-1.60;1.00
9824;DHT22;4951;50.778;7.196;2022-12-10T04:31:25;-1.60;1.00
9824;DHT22;4951;50.778;7.196;2022-12-10T04:33:52;-1.60;1.00
9824;DHT22;4951;50.778;7.196;2022-12-10T04:36:20;-1.60;1.00
9824;DHT22;4951;50.778;7.196;2022-12-10T04:38:48;-1.60;1.00
9824;DHT22;4951;50.778;7.196;2022-12-10T04:41:15;-1.60;1.00
9824;DHT22;4951;50.778;7.196;2022-12-10T04:43:42;-1.60;1.00
9824;DHT22;4951;50.778;7.196;2022-12-10T04:46:09;-1.60;1.00
9824;DHT22;4951;50.778;7.196;2022-12-10T04:48:37;-1.60;1.00
9824;DHT22;4951;50.778;7.196;2022-12-10T04:51:04;-1.60;1.00
9824;DHT22;4951;50.778;7.196;2022-12-10T04:53:32;-1.60;1.00
9824;DHT22;4951;50.778;7.196;2022-12-10T04:55:59;-1.50;1.00
9824;DHT22;4951;50.778;7.196;2022-12-10T04:58:28;-1.50;1.00
9824;DHT22;4951;50.778;7.196;2022-12-10T05:01:01;-1.50;1.00
9824;DHT22;4951;50.778;7.196;2022-12-10T05:03:29;-1.50;1.00
9824;DHT22;4951;50.778;7.196;2022-12-10T05:06:01;-1.50;1.00
9824;DHT22;4951;50.778;7.196;2022-12-10T05:08:28;-1.50;1.00
9824;DHT22;4951;50.778;7.196;2022-12-10T05:11:00;-1.50;1.00
9824;DHT22;4951;50.778;7.196;2022-12-10T05:13:27;-1.50;1.00
9824;DHT22;4951;50.778;7.196;2022-12-10T05:15:56;-1.50;1.00
9824;DHT22;4951;50.778;7.196;2022-12-10T05:18:23;-1.50;1.00
9824;DHT22;4951;50.778;7.196;2022-12-10T05:20:50;-1.40;1.00
9824;DHT22;4951;50.778;7.196;2022-12-10T05:23:17;-1.40;1.00
9824;DHT22;4951;50.778;7.196;2022-12-10T05:26:02;-1.40;1.00
9824;DHT22;4951;50.778;7.196;2022-12-10T05:28:30;-1.40;1.00
9824;DHT22;4951;50.778;7.196;2022-12-10T05:30:58;-1.40;1.00
9824;DHT22;4951;50.778;7.196;2022-12-10T05:33:26;-1.40;1.00
9824;DHT22;4951;50.778;7.196;2022-12-10T05:35:55;-1.30;1.00
9824;DHT22;4951;50.778;7.196;2022-12-10T05:38:22;-1.30;1.00
9824;DHT22;4951;50.778;7.196;2022-12-10T05:40:50;-1.30;1.00
9824;DHT22;4951;50.778;7.196;2022-12-10T05:43:19;-1.30;1.00
9824;DHT22;4951;50.778;7.196;2022-12-10T05:45:46;-1.30;1.00
9824;DHT22;4951;50.778;7.196;2022-12-10T05:48:15;-1.30;1.00
9824;DHT22;4951;50.778;7.196;2022-12-10T05:50:42;-1.30;1.00
9824;DHT22;4951;50.778;7.196;2022-12-10T05:53:09;-1.20;1.00
9824;DHT22;4951;50.778;7.196;2022-12-10T05:55:39;-1.30;1.00
9824;DHT22;4951;50.778;7.196;2022-12-10T05:58:07;-1.20;1.00
9824;DHT22;4951;50.778;7.196;2022-12-10T06:00:38;-1.20;1.00
9824;DHT22;4951;50.778;7.196;2022-12-10T06:03:05;-1.20;1.00
9824;DHT22;4951;50.778;7.196;2022-12-10T06:05:36;-1.20;1.00
9824;DHT22;4951;50.778;7.196;2022-12-10T06:08:03;-1.20;1.00
9824;DHT22;4951;50.778;7.196;2022-12-10T06:10:33;-1.20;1.00
9824;DHT22;4951;50.778;7.196;2022-12-10T06:13:00;-1.20;1.00
9824;DHT22;4951;50.778;7.196;2022-12-10T06:15:28;-1.20;1.00
9824;DHT22;4951;50.778;7.196;2022-12-10T06:17:57;-1.20;1.00
9824;DHT22;4951;50.778;7.196;2022-12-10T06:20:25;-1.20;1.00
9824;DHT22;4951;50.778;7.196;2022-12-10T06:22:52;-1.20;1.00
9824;DHT22;4951;50.778;7.196;2022-12-10T06:25:20;-1.20;1.00
9824;DHT22;4951;50.778;7.196;2022-12-10T06:27:47;-1.20;1.00
9824;DHT22;4951;50.778;7.196;2022-12-10T06:30:14;-1.20;1.00
9824;DHT22;4951;50.778;7.196;2022-12-10T06:32:42;-1.20;1.00
9824;DHT22;4951;50.778;7.196;2022-12-10T06:35:11;-1.10;1.00
9824;DHT22;4951;50.778;7.196;2022-12-10T06:37:38;-1.10;1.00
9824;DHT22;4951;50.778;7.196;2022-12-10T06:40:06;-1.10;1.00
9824;DHT22;4951;50.778;7.196;2022-12-10T06:42:33;-1.10;1.00
9824;DHT22;4951;50.778;7.196;2022-12-10T06:45:00;-1.10;1.00
9824;DHT22;4951;50.778;7.196;2022-12-10T06:47:28;-1.00;1.00
9824;DHT22;4951;50.778;7.196;2022-12-10T06:49:55;-1.10;1.00
9824;DHT22;4951;50.778;7.196;2022-12-10T06:52:24;-1.10;1.00
9824;DHT22;4951;50.778;7.196;2022-12-10T06:54:51;-1.10;1.00
9824;DHT22;4951;50.778;7.196;2022-12-10T06:57:19;-1.10;1.00
9824;DHT22;4951;50.778;7.196;2022-12-10T06:59:47;-1.00;1.00
9824;DHT22;4951;50.778;7.196;2022-12-10T07:02:14;-1.00;1.00
9824;DHT22;4951;50.778;7.196;2022-12-10T07:04:41;-1.00;1.00
9824;DHT22;4951;50.778;7.196;2022-12-10T07:07:08;-1.00;1.00
9824;DHT22;4951;50.778;7.196;2022-12-10T07:09:36;-1.00;1.00
9824;DHT22;4951;50.778;7.196;2022-12-10T07:12:04;-1.00;1.00
9824;DHT22;4951;50.778;7.196;2022-12-10T07:14:32;-1.00;1.00
9824;DHT22;4951;50.778;7.196;2022-12-10T07:16:59;-1.00;1.00
9824;DHT22;4951;50.778;7.196;2022-12-10T07:19:28;-1.00;1.00
9824;DHT22;4951;50.778;7.196;2022-12-10T07:21:55;-1.00;1.00
9824;DHT22;4951;50.778;7.196;2022-12-10T07:24:22;-1.00;1.00
9824;DHT22;4951;50.778;7.196;2022-12-10T07:26:51;-1.00;1.00
9824;DHT22;4951;50.778;7.196;2022-12-10T07:29:20;-1.00;1.00
9824;DHT22;4951;50.778;7.196;2022-12-10T07:31:48;-1.00;1.00
9824;DHT22;4951;50.778;7.196;2022-12-10T07:34:15;-1.00;1.00
9824;DHT22;4951;50.778;7.196;2022-12-10T07:36:42;-1.00;1.00
9824;DHT22;4951;50.778;7.196;2022-12-10T07:39:10;-1.00;1.00
9824;DHT22;4951;50.778;7.196;2022-12-10T07:41:43;-1.00;1.00
9824;DHT22;4951;50.778;7.196;2022-12-10T07:44:12;-1.00;1.00
9824;DHT22;4951;50.778;7.196;2022-12-10T07:46:39;-1.00;1.00
9824;DHT22;4951;50.778;7.196;2022-12-10T07:49:06;-1.00;1.00
9824;DHT22;4951;50.778;7.196;2022-12-10T07:51:33;-1.00;1.00
9824;DHT22;4951;50.778;7.196;2022-12-10T07:54:00;-1.00;1.00
9824;DHT22;4951;50.778;7.196;2022-12-10T07:56:27;-0.90;1.00
9824;DHT22;4951;50.778;7.196;2022-12-10T07:58:55;-0.90;1.00
9824;DHT22;4951;50.778;7.196;2022-12-10T08:01:25;-0.90;1.00
9824;DHT22;4951;50.778;7.196;2022-12-10T08:03:54;-0.90;1.00
9824;DHT22;4951;50.778;7.196;2022-12-10T08:06:24;-0.90;1.00
9824;DHT22;4951;50.778;7.196;2022-12-10T08:08:52;-0.80;1.00
9824;DHT22;4951;50.778;7.196;2022-12-10T08:11:21;-0.80;1.00
9824;DHT22;4951;50.778;7.196;2022-12-10T08:13:49;-0.80;1.00
9824;DHT22;4951;50.778;7.196;2022-12-10T08:16:18;-0.70;1.00
9824;DHT22;4951;50.778;7.196;2022-12-10T08:18:49;-0.70;1.00
9824;DHT22;4951;50.778;7.196;2022-12-10T08:21:19;-0.70;1.00
9824;DHT22;4951;50.778;7.196;2022-12-10T08:23:47;-0.70;1.00
9824;DHT22;4951;50.778;7.196;2022-12-10T08:26:16;-0.60;1.00
9824;DHT22;4951;50.778;7.196;2022-12-10T08:28:44;-0.60;1.00
9824;DHT22;4951;50.778;7.196;2022-12-10T08:31:12;-0.60;1.00
9824;DHT22;4951;50.778;7.196;2022-12-10T08:33:40;-0.60;1.00
9824;DHT22;4951;50.778;7.196;2022-12-10T08:36:10;-0.60;1.00
9824;DHT22;4951;50.778;7.196;2022-12-10T08:38:38;-0.60;1.00
9824;DHT22;4951;50.778;7.196;2022-12-10T08:41:07;-0.50;1.00
9824;DHT22;4951;50.778;7.196;2022-12-10T08:43:34;-0.50;1.00
9824;DHT22;4951;50.778;7.196;2022-12-10T08:46:02;-0.40;1.00
9824;DHT22;4951;50.778;7.196;2022-12-10T08:48:30;-0.40;1.00
9824;DHT22;4951;50.778;7.196;2022-12-10T08:50:57;-0.30;1.00
9824;DHT22;4951;50.778;7.196;2022-12-10T08:53:26;-0.30;1.00
9824;DHT22;4951;50.778;7.196;2022-12-10T08:55:53;-0.20;1.00
9824;DHT22;4951;50.778;7.196;2022-12-10T08:58:20;-0.20;1.00
9824;DHT22;4951;50.778;7.196;2022-12-10T09:00:48;-0.10;1.00
9824;DHT22;4951;50.778;7.196;2022-12-10T09:03:16;-0.10;1.00
9824;DHT22;4951;50.778;7.196;2022-12-10T09:05:44;-0.10;1.00
9824;DHT22;4951;50.778;7.196;2022-12-10T09:08:11;0.00;1.00
9824;DHT22;4951;50.778;7.196;2022-12-10T09:10:40;0.00;1.00
9824;DHT22;4951;50.778;7.196;2022-12-10T09:13:07;0.10;1.00
9824;DHT22;4951;50.778;7.196;2022-12-10T09:15:35;0.10;1.00
9824;DHT22;4951;50.778;7.196;2022-12-10T09:18:03;0.20;1.00
9824;DHT22;4951;50.778;7.196;2022-12-10T09:20:30;0.20;1.00
9824;DHT22;4951;50.778;7.196;2022-12-10T09:22:58;0.20;1.00
9824;DHT22;4951;50.778;7.196;2022-12-10T09:25:25;0.20;1.00
9824;DHT22;4951;50.778;7.196;2022-12-10T09:27:53;0.30;1.00
9824;DHT22;4951;50.778;7.196;2022-12-10T09:30:21;0.30;1.00
9824;DHT22;4951;50.778;7.196;2022-12-10T09:32:48;0.30;1.00
9824;DHT22;4951;50.778;7.196;2022-12-10T09:35:16;0.30;1.00
9824;DHT22;4951;50.778;7.196;2022-12-10T09:37:43;0.40;1.00
9824;DHT22;4951;50.778;7.196;2022-12-10T09:40:15;0.40;1.00
9824;DHT22;4951;50.778;7.196;2022-12-10T09:42:47;0.40;1.00
9824;DHT22;4951;50.778;7.196;2022-12-10T09:45:26;0.50;1.00
9824;DHT22;4951;50.778;7.196;2022-12-10T09:48:00;0.50;1.00
9824;DHT22;4951;50.778;7.196;2022-12-10T09:50:31;0.50;1.00
9824;DHT22;4951;50.778;7.196;2022-12-10T09:53:02;0.50;1.00
9824;DHT22;4951;50.778;7.196;2022-12-10T09:55:35;0.60;1.00
9824;DHT22;4951;50.778;7.196;2022-12-10T09:58:05;0.60;1.00
9824;DHT22;4951;50.778;7.196;2022-12-10T10:00:39;0.60;1.00
9824;DHT22;4951;50.778;7.196;2022-12-10T10:03:09;0.70;1.00
9824;DHT22;4951;50.778;7.196;2022-12-10T10:05:41;0.80;1.00
9824;DHT22;4951;50.778;7.196;2022-12-10T10:08:14;0.80;1.00
9824;DHT22;4951;50.778;7.196;2022-12-10T10:10:44;0.80;1.00
9824;DHT22;4951;50.778;7.196;2022-12-10T10:13:17;0.80;1.00
9824;DHT22;4951;50.778;7.196;2022-12-10T10:15:46;0.80;1.00
9824;DHT22;4951;50.778;7.196;2022-12-10T10:18:21;0.90;1.00
9824;DHT22;4951;50.778;7.196;2022-12-10T10:20:50;0.90;1.00
9824;DHT22;4951;50.778;7.196;2022-12-10T10:23:17;0.80;1.00
9824;DHT22;4951;50.778;7.196;2022-12-10T10:25:44;0.80;1.00
9824;DHT22;4951;50.778;7.196;2022-12-10T10:28:17;0.80;1.00
9824;DHT22;4951;50.778;7.196;2022-12-10T10:30:46;0.80;1.00
9824;DHT22;4951;50.778;7.196;2022-12-10T10:33:15;0.80;1.00
9824;DHT22;4951;50.778;7.196;2022-12-10T10:35:44;0.90;1.00
9824;DHT22;4951;50.778;7.196;2022-12-10T10:38:18;1.00;1.00
9824;DHT22;4951;50.778;7.196;2022-12-10T10:40:50;1.00;1.00
9824;DHT22;4951;50.778;7.196;2022-12-10T10:43:21;1.00;1.00
9824;DHT22;4951;50.778;7.196;2022-12-10T10:45:52;1.00;99.90
9824;DHT22;4951;50.778;7.196;2022-12-10T10:48:21;1.00;99.90
9824;DHT22;4951;50.778;7.196;2022-12-10T10:50:50;1.00;99.90
9824;DHT22;4951;50.778;7.196;2022-12-10T10:53:28;1.00;99.90
9824;DHT22;4951;50.778;7.196;2022-12-10T10:56:06;1.10;99.90
9824;DHT22;4951;50.778;7.196;2022-12-10T10:58:35;1.10;99.90
9824;DHT22;4951;50.778;7.196;2022-12-10T11:01:06;1.10;99.90
9824;DHT22;4951;50.778;7.196;2022-12-10T11:03:35;1.00;1.00
9824;DHT22;4951;50.778;7.196;2022-12-10T11:06:06;1.00;15.50
9824;DHT22;4951;50.778;7.196;2022-12-10T11:08:35;1.00;36.60
9824;DHT22;4951;50.778;7.196;2022-12-10T11:11:06;1.00;81.20
9824;DHT22;4951;50.778;7.196;2022-12-10T11:13:34;1.00;46.10
9824;DHT22;4951;50.778;7.196;2022-12-10T11:16:12;1.00;99.90
9824;DHT22;4951;50.778;7.196;2022-12-10T11:18:53;1.00;99.90
9824;DHT22;4951;50.778;7.196;2022-12-10T11:21:21;1.10;99.90
9824;DHT22;4951;50.778;7.196;2022-12-10T11:23:51;1.00;99.90
9824;DHT22;4951;50.778;7.196;2022-12-10T11:29:35;1.10;99.90
9824;DHT22;4951;50.778;7.196;2022-12-10T11:32:18;1.10;99.90
9824;DHT22;4951;50.778;7.196;2022-12-10T11:35:01;1.10;99.90
9824;DHT22;4951;50.778;7.196;2022-12-10T11:37:32;1.20;99.90
9824;DHT22;4951;50.778;7.196;2022-12-10T11:40:10;1.20;99.90
9824;DHT22;4951;50.778;7.196;2022-12-10T11:42:47;1.20;99.90
9824;DHT22;4951;50.778;7.196;2022-12-10T11:45:20;1.20;99.90
9824;DHT22;4951;50.778;7.196;2022-12-10T11:48:01;1.20;95.90
9824;DHT22;4951;50.778;7.196;2022-12-10T11:50:37;1.20;98.90
9824;DHT22;4951;50.778;7.196;2022-12-10T11:53:24;1.20;99.90
9824;DHT22;4951;50.778;7.196;2022-12-10T11:56:01;1.20;99.90
9824;DHT22;4951;50.778;7.196;2022-12-10T11:58:52;1.20;99.90
9824;DHT22;4951;50.778;7.196;2022-12-10T12:01:33;1.20;97.50
9824;DHT22;4951;50.778;7.196;2022-12-10T12:04:25;1.20;93.80
9824;DHT22;4951;50.778;7.196;2022-12-10T12:07:12;1.20;99.90
9824;DHT22;4951;50.778;7.196;2022-12-10T12:09:54;1.20;99.90
9824;DHT22;4951;50.778;7.196;2022-12-10T12:12:32;1.10;39.50
9824;DHT22;4951;50.778;7.196;2022-12-10T12:15:13;1.10;43.00
9824;DHT22;4951;50.778;7.196;2022-12-10T12:17:48;1.10;81.20
9824;DHT22;4951;50.778;7.196;2022-12-10T12:20:23;1.10;15.10
9824;DHT22;4951;50.778;7.196;2022-12-10T12:22:56;1.10;1.00
9824;DHT22;4951;50.778;7.196;2022-12-10T12:25:28;1.10;1.00
9824;DHT22;4951;50.778;7.196;2022-12-10T12:28:01;1.20;1.00
9824;DHT22;4951;50.778;7.196;2022-12-10T12:30:32;1.20;1.00
9824;DHT22;4951;50.778;7.196;2022-12-10T12:33:04;1.20;1.00
9824;DHT22;4951;50.778;7.196;2022-12-10T12:35:38;1.20;1.00
9824;DHT22;4951;50.778;7.196;2022-12-10T12:38:21;1.20;1.00
9824;DHT22;4951;50.778;7.196;2022-12-10T12:40:52;1.30;1.00
9824;DHT22;4951;50.778;7.196;2022-12-10T12:43:24;1.20;1.00
9824;DHT22;4951;50.778;7.196;2022-12-10T12:45:54;1.20;1.00
9824;DHT22;4951;50.778;7.196;2022-12-10T12:48:24;1.20;1.00
9824;DHT22;4951;50.778;7.196;2022-12-10T12:51:00;1.20;1.00
9824;DHT22;4951;50.778;7.196;2022-12-10T12:53:27;1.30;1.00
9824;DHT22;4951;50.778;7.196;2022-12-10T12:55:59;1.30;1.00
9824;DHT22;4951;50.778;7.196;2022-12-10T12:58:37;1.40;1.00
9824;DHT22;4951;50.778;7.196;2022-12-10T13:01:20;1.40;1.00
9824;DHT22;4951;50.778;7.196;2022-12-10T13:03:51;1.50;1.00
9824;DHT22;4951;50.778;7.196;2022-12-10T13:06:25;1.50;1.00
9824;DHT22;4951;50.778;7.196;2022-12-10T13:08:58;1.50;1.00
9824;DHT22;4951;50.778;7.196;2022-12-10T13:11:31;1.50;1.00
9824;DHT22;4951;50.778;7.196;2022-12-10T13:14:11;1.50;1.00
9824;DHT22;4951;50.778;7.196;2022-12-10T13:16:58;1.40;1.00
9824;DHT22;4951;50.778;7.196;2022-12-10T13:19:28;1.40;1.00
9824;DHT22;4951;50.778;7.196;2022-12-10T13:22:00;1.50;1.00
9824;DHT22;4951;50.778;7.196;2022-12-10T13:24:59;1.50;1.00
9824;DHT22;4951;50.778;7.196;2022-12-10T13:27:32;1.50;1.00
9824;DHT22;4951;50.778;7.196;2022-12-10T13:30:03;1.50;1.00
9824;DHT22;4951;50.778;7.196;2022-12-10T13:32:45;1.60;1.00
9824;DHT22;4951;50.778;7.196;2022-12-10T13:35:25;1.60;1.00
9824;DHT22;4951;50.778;7.196;2022-12-10T13:37:56;1.50;1.00
9824;DHT22;4951;50.778;7.196;2022-12-10T13:40:26;1.50;1.00
9824;DHT22;4951;50.778;7.196;2022-12-10T13:43:25;1.50;1.00
9824;DHT22;4951;50.778;7.196;2022-12-10T13:46:25;1.40;1.00
9824;DHT22;4951;50.778;7.196;2022-12-10T13:48:53;1.30;1.00
9824;DHT22;4951;50.778;7.196;2022-12-10T13:51:39;1.30;1.00
9824;DHT22;4951;50.778;7.196;2022-12-10T13:54:29;1.30;1.00
9824;DHT22;4951;50.778;7.196;2022-12-10T13:57:08;1.30;1.00
9824;DHT22;4951;50.778;7.196;2022-12-10T13:59:43;1.20;1.00
9824;DHT22;4951;50.778;7.196;2022-12-10T14:02:45;1.20;1.00
9824;DHT22;4951;50.778;7.196;2022-12-10T14:08:25;1.20;1.00
9824;DHT22;4951;50.778;7.196;2022-12-10T14:10:55;1.10;1.00
9824;DHT22;4951;50.778;7.196;2022-12-10T14:13:28;1.10;1.00
9824;DHT22;4951;50.778;7.196;2022-12-10T14:15:59;1.10;1.00
9824;DHT22;4951;50.778;7.196;2022-12-10T14:18:28;1.10;1.00
9824;DHT22;4951;50.778;7.196;2022-12-10T14:20:56;1.10;1.00
9824;DHT22;4951;50.778;7.196;2022-12-10T14:23:25;1.10;1.00
9824;DHT22;4951;50.778;7.196;2022-12-10T14:26:06;1.10;1.00
9824;DHT22;4951;50.778;7.196;2022-12-10T14:28:39;1.00;1.00
9824;DHT22;4951;50.778;7.196;2022-12-10T14:31:12;1.00;1.00
9824;DHT22;4951;50.778;7.196;2022-12-10T14:33:42;1.00;1.00
9824;DHT22;4951;50.778;7.196;2022-12-10T14:36:16;1.00;1.00
9824;DHT22;4951;50.778;7.196;2022-12-10T14:38:45;1.00;1.00
9824;DHT22;4951;50.778;7.196;2022-12-10T14:41:19;1.00;1.00
9824;DHT22;4951;50.778;7.196;2022-12-10T14:43:48;0.90;1.00
9824;DHT22;4951;50.778;7.196;2022-12-10T14:46:22;0.90;1.00
9824;DHT22;4951;50.778;7.196;2022-12-10T14:48:51;0.90;1.00
9824;DHT22;4951;50.778;7.196;2022-12-10T14:51:20;0.90;1.00
9824;DHT22;4951;50.778;7.196;2022-12-10T14:53:49;0.80;1.00
9824;DHT22;4951;50.778;7.196;2022-12-10T14:56:24;0.80;1.00
9824;DHT22;4951;50.778;7.196;2022-12-10T14:58:57;0.80;1.00
9824;DHT22;4951;50.778;7.196;2022-12-10T15:01:28;0.70;1.00
9824;DHT22;4951;50.778;7.196;2022-12-10T15:03:58;0.70;99.90
9824;DHT22;4951;50.778;7.196;2022-12-10T15:06:28;0.70;99.90
9824;DHT22;4951;50.778;7.196;2022-12-10T15:08:59;0.60;99.90
9824;DHT22;4951;50.778;7.196;2022-12-10T15:11:29;0.60;99.90
9824;DHT22;4951;50.778;7.196;2022-12-10T15:13:58;0.60;1.00
9824;DHT22;4951;50.778;7.196;2022-12-10T15:16:30;0.60;1.00
9824;DHT22;4951;50.778;7.196;2022-12-10T15:19:07;0.50;1.00
9824;DHT22;4951;50.778;7.196;2022-12-10T15:21:41;0.50;1.00
9824;DHT22;4951;50.778;7.196;2022-12-10T15:24:15;0.50;1.00
9824;DHT22;4951;50.778;7.196;2022-12-10T15:26:45;0.50;1.00
9824;DHT22;4951;50.778;7.196;2022-12-10T15:29:33;0.50;1.00
9824;DHT22;4951;50.778;7.196;2022-12-10T15:32:05;0.40;1.00
9824;DHT22;4951;50.778;7.196;2022-12-10T15:34:38;0.40;1.00
9824;DHT22;4951;50.778;7.196;2022-12-10T15:37:16;0.40;1.00
9824;DHT22;4951;50.778;7.196;2022-12-10T15:39:46;0.40;1.00
9824;DHT22;4951;50.778;7.196;2022-12-10T15:42:37;0.30;1.00
9824;DHT22;4951;50.778;7.196;2022-12-10T15:45:22;0.30;1.00
9824;DHT22;4951;50.778;7.196;2022-12-10T15:47:51;0.30;1.00
9824;DHT22;4951;50.778;7.196;2022-12-10T15:50:19;0.30;1.00
9824;DHT22;4951;50.778;7.196;2022-12-10T15:52:46;0.30;1.00
9824;DHT22;4951;50.778;7.196;2022-12-10T15:55:14;0.20;1.00
9824;DHT22;4951;50.778;7.196;2022-12-10T15:57:43;0.20;1.00
9824;DHT22;4951;50.778;7.196;2022-12-10T16:00:17;0.20;1.00
9824;DHT22;4951;50.778;7.196;2022-12-10T16:02:49;0.20;1.00
9824;DHT22;4951;50.778;7.196;2022-12-10T16:05:20;0.20;1.00
9824;DHT22;4951;50.778;7.196;2022-12-10T16:07:49;0.20;1.00
9824;DHT22;4951;50.778;7.196;2022-12-10T16:10:19;0.20;1.00
9824;DHT22;4951;50.778;7.196;2022-12-10T16:12:49;0.20;1.00
9824;DHT22;4951;50.778;7.196;2022-12-10T16:15:20;0.20;1.00
9824;DHT22;4951;50.778;7.196;2022-12-10T16:17:47;0.20;1.00
9824;DHT22;4951;50.778;7.196;2022-12-10T16:20:20;0.20;1.00
9824;DHT22;4951;50.778;7.196;2022-12-10T16:22:48;0.20;1.00
9824;DHT22;4951;50.778;7.196;2022-12-10T16:25:15;0.20;1.00
9824;DHT22;4951;50.778;7.196;2022-12-10T16:27:43;0.20;1.00
9824;DHT22;4951;50.778;7.196;2022-12-10T16:30:18;0.20;1.00
9824;DHT22;4951;50.778;7.196;2022-12-10T16:32:46;0.20;1.00
9824;DHT22;4951;50.778;7.196;2022-12-10T16:35:14;0.20;1.00
9824;DHT22;4951;50.778;7.196;2022-12-10T16:37:42;0.20;1.00
9824;DHT22;4951;50.778;7.196;2022-12-10T16:40:11;0.20;1.00
9824;DHT22;4951;50.778;7.196;2022-12-10T16:42:39;0.20;1.00
9824;DHT22;4951;50.778;7.196;2022-12-10T16:45:13;0.20;1.00
9824;DHT22;4951;50.778;7.196;2022-12-10T16:47:42;0.20;1.00
9824;DHT22;4951;50.778;7.196;2022-12-10T16:50:11;0.20;1.00
9824;DHT22;4951;50.778;7.196;2022-12-10T16:52:39;0.20;1.00
9824;DHT22;4951;50.778;7.196;2022-12-10T16:55:11;0.20;1.00
9824;DHT22;4951;50.778;7.196;2022-12-10T16:57:38;0.20;1.00